sensor_id;sensor_type;location;lat;lon;timestamp;P1;durP1;ratioP1;P2;durP2;ratioP2
72125;SDS011;59999;51.676;22.650;2023-08-12T00:01:55;15.43;;;8.93;;
72125;SDS011;59999;51.676;22.650;2023-08-12T00:04:21;14.60;;;8.17;;
72125;SDS011;59999;51.676;22.650;2023-08-12T00:06:47;15.52;;;8.98;;
72125;SDS011;59999;51.676;22.650;2023-08-12T00:09:13;12.85;;;8.18;;
72125;SDS011;59999;51.676;22.650;2023-08-12T00:11:40;14.10;;;8.43;;
72125;SDS011;59999;51.676;22.650;2023-08-12T00:14:06;14.82;;;8.50;;
72125;SDS011;59999;51.676;22.650;2023-08-12T00:16:32;15.90;;;8.80;;
72125;SDS011;59999;51.676;22.650;2023-08-12T00:18:58;19.03;;;9.13;;
72125;SDS011;59999;51.676;22.650;2023-08-12T00:21:25;16.48;;;9.50;;
72125;SDS011;59999;51.676;22.650;2023-08-12T00:23:50;14.40;;;8.85;;
72125;SDS011;59999;51.676;22.650;2023-08-12T00:26:17;15.02;;;8.60;;
72125;SDS011;59999;51.676;22.650;2023-08-12T00:28:42;16.63;;;9.13;;
72125;SDS011;59999;51.676;22.650;2023-08-12T00:31:08;14.65;;;8.63;;
72125;SDS011;59999;51.676;22.650;2023-08-12T00:33:34;16.73;;;9.07;;
72125;SDS011;59999;51.676;22.650;2023-08-12T00:36:00;13.30;;;8.00;;
72125;SDS011;59999;51.676;22.650;2023-08-12T00:38:26;15.10;;;8.38;;
72125;SDS011;59999;51.676;22.650;2023-08-12T00:40:53;13.52;;;8.05;;
72125;SDS011;59999;51.676;22.650;2023-08-12T00:43:19;15.03;;;8.87;;
72125;SDS011;59999;51.676;22.650;2023-08-12T00:45:45;17.63;;;8.40;;
72125;SDS011;59999;51.676;22.650;2023-08-12T00:48:11;14.50;;;8.13;;
72125;SDS011;59999;51.676;22.650;2023-08-12T00:50:37;15.23;;;7.97;;
72125;SDS011;59999;51.676;22.650;2023-08-12T00:53:04;16.60;;;8.60;;
72125;SDS011;59999;51.676;22.650;2023-08-12T00:55:32;13.60;;;7.80;;
72125;SDS011;59999;51.676;22.650;2023-08-12T00:57:58;16.35;;;8.35;;
72125;SDS011;59999;51.676;22.650;2023-08-12T01:00:25;16.77;;;8.20;;
72125;SDS011;59999;51.676;22.650;2023-08-12T01:02:51;15.10;;;8.35;;
72125;SDS011;59999;51.676;22.650;2023-08-12T01:05:17;15.90;;;8.80;;
72125;SDS011;59999;51.676;22.650;2023-08-12T01:07:45;14.50;;;8.23;;
72125;SDS011;59999;51.676;22.650;2023-08-12T01:10:12;16.02;;;8.73;;
72125;SDS011;59999;51.676;22.650;2023-08-12T01:12:52;15.93;;;8.18;;
72125;SDS011;59999;51.676;22.650;2023-08-12T01:15:31;14.75;;;8.15;;
72125;SDS011;59999;51.676;22.650;2023-08-12T01:17:57;17.95;;;8.73;;
72125;SDS011;59999;51.676;22.650;2023-08-12T01:20:26;16.03;;;8.97;;
72125;SDS011;59999;51.676;22.650;2023-08-12T01:22:55;14.45;;;8.90;;
72125;SDS011;59999;51.676;22.650;2023-08-12T01:25:24;15.60;;;8.57;;
72125;SDS011;59999;51.676;22.650;2023-08-12T01:27:50;15.32;;;9.25;;
72125;SDS011;59999;51.676;22.650;2023-08-12T01:30:16;15.82;;;8.70;;
72125;SDS011;59999;51.676;22.650;2023-08-12T01:35:34;13.55;;;7.95;;
72125;SDS011;59999;51.676;22.650;2023-08-12T01:38:05;14.38;;;8.63;;
72125;SDS011;59999;51.676;22.650;2023-08-12T01:40:32;15.20;;;8.50;;
72125;SDS011;59999;51.676;22.650;2023-08-12T01:42:59;14.70;;;7.93;;
72125;SDS011;59999;51.676;22.650;2023-08-12T01:45:26;16.67;;;8.83;;
72125;SDS011;59999;51.676;22.650;2023-08-12T01:47:52;13.30;;;6.47;;
72125;SDS011;59999;51.676;22.650;2023-08-12T01:50:18;15.27;;;8.18;;
72125;SDS011;59999;51.676;22.650;2023-08-12T01:52:46;17.20;;;8.10;;
72125;SDS011;59999;51.676;22.650;2023-08-12T01:55:12;16.08;;;8.60;;
72125;SDS011;59999;51.676;22.650;2023-08-12T01:57:38;13.13;;;7.88;;
72125;SDS011;59999;51.676;22.650;2023-08-12T02:00:05;14.02;;;7.70;;
72125;SDS011;59999;51.676;22.650;2023-08-12T02:02:31;14.97;;;7.57;;
72125;SDS011;59999;51.676;22.650;2023-08-12T02:04:57;13.57;;;7.88;;
72125;SDS011;59999;51.676;22.650;2023-08-12T02:07:23;12.98;;;7.32;;
72125;SDS011;59999;51.676;22.650;2023-08-12T02:09:49;10.70;;;6.35;;
72125;SDS011;59999;51.676;22.650;2023-08-12T02:12:15;13.10;;;7.40;;
72125;SDS011;59999;51.676;22.650;2023-08-12T02:14:41;12.48;;;7.70;;
72125;SDS011;59999;51.676;22.650;2023-08-12T02:17:07;15.57;;;8.77;;
72125;SDS011;59999;51.676;22.650;2023-08-12T02:19:33;19.17;;;9.40;;
72125;SDS011;59999;51.676;22.650;2023-08-12T02:22:00;16.23;;;9.15;;
72125;SDS011;59999;51.676;22.650;2023-08-12T02:24:27;13.23;;;7.72;;
72125;SDS011;59999;51.676;22.650;2023-08-12T02:26:53;14.10;;;7.87;;
72125;SDS011;59999;51.676;22.650;2023-08-12T02:29:19;13.70;;;7.80;;
72125;SDS011;59999;51.676;22.650;2023-08-12T02:31:45;13.80;;;8.10;;
72125;SDS011;59999;51.676;22.650;2023-08-12T02:34:11;13.90;;;7.53;;
72125;SDS011;59999;51.676;22.650;2023-08-12T02:36:37;16.07;;;8.37;;
72125;SDS011;59999;51.676;22.650;2023-08-12T02:39:03;18.25;;;8.68;;
72125;SDS011;59999;51.676;22.650;2023-08-12T02:41:30;17.58;;;9.18;;
72125;SDS011;59999;51.676;22.650;2023-08-12T02:43:56;14.30;;;8.00;;
72125;SDS011;59999;51.676;22.650;2023-08-12T02:46:22;16.37;;;7.97;;
72125;SDS011;59999;51.676;22.650;2023-08-12T02:48:50;16.27;;;8.20;;
72125;SDS011;59999;51.676;22.650;2023-08-12T02:51:16;14.33;;;7.73;;
72125;SDS011;59999;51.676;22.650;2023-08-12T02:53:42;15.63;;;7.85;;
72125;SDS011;59999;51.676;22.650;2023-08-12T02:56:08;13.93;;;7.78;;
72125;SDS011;59999;51.676;22.650;2023-08-12T02:58:34;14.98;;;7.32;;
72125;SDS011;59999;51.676;22.650;2023-08-12T03:01:00;13.17;;;8.00;;
72125;SDS011;59999;51.676;22.650;2023-08-12T03:03:26;16.73;;;7.97;;
72125;SDS011;59999;51.676;22.650;2023-08-12T03:05:51;15.82;;;8.90;;
72125;SDS011;59999;51.676;22.650;2023-08-12T03:08:18;17.50;;;9.67;;
72125;SDS011;59999;51.676;22.650;2023-08-12T03:10:44;18.08;;;9.38;;
72125;SDS011;59999;51.676;22.650;2023-08-12T03:13:10;16.95;;;9.65;;
72125;SDS011;59999;51.676;22.650;2023-08-12T03:15:38;16.83;;;8.80;;
72125;SDS011;59999;51.676;22.650;2023-08-12T03:18:05;13.75;;;7.75;;
72125;SDS011;59999;51.676;22.650;2023-08-12T03:20:31;13.55;;;7.22;;
72125;SDS011;59999;51.676;22.650;2023-08-12T03:22:57;13.30;;;8.00;;
72125;SDS011;59999;51.676;22.650;2023-08-12T03:25:23;12.57;;;7.15;;
72125;SDS011;59999;51.676;22.650;2023-08-12T03:27:49;15.88;;;8.82;;
72125;SDS011;59999;51.676;22.650;2023-08-12T03:30:14;16.27;;;9.03;;
72125;SDS011;59999;51.676;22.650;2023-08-12T03:32:40;17.60;;;9.60;;
72125;SDS011;59999;51.676;22.650;2023-08-12T03:35:06;18.10;;;9.15;;
72125;SDS011;59999;51.676;22.650;2023-08-12T03:37:33;16.23;;;9.57;;
72125;SDS011;59999;51.676;22.650;2023-08-12T03:39:58;17.40;;;10.13;;
72125;SDS011;59999;51.676;22.650;2023-08-12T03:42:24;16.75;;;9.13;;
72125;SDS011;59999;51.676;22.650;2023-08-12T03:44:50;17.27;;;9.77;;
72125;SDS011;59999;51.676;22.650;2023-08-12T03:47:16;17.92;;;9.30;;
72125;SDS011;59999;51.676;22.650;2023-08-12T03:49:47;16.27;;;9.05;;
72125;SDS011;59999;51.676;22.650;2023-08-12T03:52:13;14.43;;;8.77;;
72125;SDS011;59999;51.676;22.650;2023-08-12T03:54:39;16.17;;;8.80;;
72125;SDS011;59999;51.676;22.650;2023-08-12T03:57:05;16.63;;;9.35;;
72125;SDS011;59999;51.676;22.650;2023-08-12T03:59:30;15.53;;;8.57;;
72125;SDS011;59999;51.676;22.650;2023-08-12T04:01:56;16.88;;;8.70;;
72125;SDS011;59999;51.676;22.650;2023-08-12T04:04:23;13.75;;;8.30;;
72125;SDS011;59999;51.676;22.650;2023-08-12T04:06:49;14.93;;;8.23;;
72125;SDS011;59999;51.676;22.650;2023-08-12T04:09:17;14.57;;;8.10;;
72125;SDS011;59999;51.676;22.650;2023-08-12T04:11:44;13.07;;;8.05;;
72125;SDS011;59999;51.676;22.650;2023-08-12T04:14:10;14.38;;;8.20;;
72125;SDS011;59999;51.676;22.650;2023-08-12T04:16:37;15.27;;;8.55;;
72125;SDS011;59999;51.676;22.650;2023-08-12T04:19:02;14.87;;;7.77;;
72125;SDS011;59999;51.676;22.650;2023-08-12T04:21:28;13.00;;;8.13;;
72125;SDS011;59999;51.676;22.650;2023-08-12T04:23:54;15.25;;;7.95;;
72125;SDS011;59999;51.676;22.650;2023-08-12T04:26:20;12.83;;;7.63;;
72125;SDS011;59999;51.676;22.650;2023-08-12T04:28:46;13.23;;;7.57;;
72125;SDS011;59999;51.676;22.650;2023-08-12T04:31:12;12.52;;;7.60;;
72125;SDS011;59999;51.676;22.650;2023-08-12T04:33:38;12.70;;;7.50;;
72125;SDS011;59999;51.676;22.650;2023-08-12T04:36:04;13.65;;;7.55;;
72125;SDS011;59999;51.676;22.650;2023-08-12T04:38:30;13.05;;;7.32;;
72125;SDS011;59999;51.676;22.650;2023-08-12T04:40:57;11.73;;;7.07;;
72125;SDS011;59999;51.676;22.650;2023-08-12T04:43:22;13.27;;;6.63;;
72125;SDS011;59999;51.676;22.650;2023-08-12T04:45:48;11.02;;;6.82;;
72125;SDS011;59999;51.676;22.650;2023-08-12T04:48:14;11.65;;;6.72;;
72125;SDS011;59999;51.676;22.650;2023-08-12T04:50:42;9.87;;;6.30;;
72125;SDS011;59999;51.676;22.650;2023-08-12T04:53:08;11.45;;;6.35;;
72125;SDS011;59999;51.676;22.650;2023-08-12T04:55:34;11.45;;;6.55;;
72125;SDS011;59999;51.676;22.650;2023-08-12T04:58:01;13.30;;;7.07;;
72125;SDS011;59999;51.676;22.650;2023-08-12T05:00:27;12.98;;;6.57;;
72125;SDS011;59999;51.676;22.650;2023-08-12T05:02:53;12.60;;;6.63;;
72125;SDS011;59999;51.676;22.650;2023-08-12T05:05:19;11.88;;;6.55;;
72125;SDS011;59999;51.676;22.650;2023-08-12T05:07:46;9.95;;;6.38;;
72125;SDS011;59999;51.676;22.650;2023-08-12T05:10:15;11.93;;;6.80;;
72125;SDS011;59999;51.676;22.650;2023-08-12T05:12:42;12.60;;;6.95;;
72125;SDS011;59999;51.676;22.650;2023-08-12T05:15:09;10.60;;;6.20;;
72125;SDS011;59999;51.676;22.650;2023-08-12T05:17:36;12.95;;;6.63;;
72125;SDS011;59999;51.676;22.650;2023-08-12T05:20:02;12.18;;;6.72;;
72125;SDS011;59999;51.676;22.650;2023-08-12T05:22:29;10.25;;;6.22;;
72125;SDS011;59999;51.676;22.650;2023-08-12T05:24:55;10.45;;;6.15;;
72125;SDS011;59999;51.676;22.650;2023-08-12T05:27:21;9.87;;;6.20;;
72125;SDS011;59999;51.676;22.650;2023-08-12T05:29:47;10.90;;;5.55;;
72125;SDS011;59999;51.676;22.650;2023-08-12T05:32:13;12.27;;;6.28;;
72125;SDS011;59999;51.676;22.650;2023-08-12T05:34:39;12.43;;;6.27;;
72125;SDS011;59999;51.676;22.650;2023-08-12T05:37:04;10.30;;;5.50;;
72125;SDS011;59999;51.676;22.650;2023-08-12T05:39:30;10.60;;;5.50;;
72125;SDS011;59999;51.676;22.650;2023-08-12T05:41:56;10.70;;;5.47;;
72125;SDS011;59999;51.676;22.650;2023-08-12T05:44:22;10.38;;;5.43;;
72125;SDS011;59999;51.676;22.650;2023-08-12T05:46:48;9.43;;;5.15;;
72125;SDS011;59999;51.676;22.650;2023-08-12T05:49:13;8.20;;;4.67;;
72125;SDS011;59999;51.676;22.650;2023-08-12T05:51:40;8.82;;;5.22;;
72125;SDS011;59999;51.676;22.650;2023-08-12T05:54:06;8.18;;;4.38;;
72125;SDS011;59999;51.676;22.650;2023-08-12T05:56:33;10.73;;;4.90;;
72125;SDS011;59999;51.676;22.650;2023-08-12T05:58:58;9.88;;;5.25;;
72125;SDS011;59999;51.676;22.650;2023-08-12T06:01:25;10.93;;;4.88;;
72125;SDS011;59999;51.676;22.650;2023-08-12T06:03:50;10.23;;;5.00;;
72125;SDS011;59999;51.676;22.650;2023-08-12T06:06:16;10.03;;;4.87;;
72125;SDS011;59999;51.676;22.650;2023-08-12T06:08:42;8.82;;;4.28;;
72125;SDS011;59999;51.676;22.650;2023-08-12T06:11:08;8.75;;;4.95;;
72125;SDS011;59999;51.676;22.650;2023-08-12T06:13:34;7.77;;;4.53;;
72125;SDS011;59999;51.676;22.650;2023-08-12T06:16:00;8.30;;;4.60;;
72125;SDS011;59999;51.676;22.650;2023-08-12T06:18:26;9.63;;;5.00;;
72125;SDS011;59999;51.676;22.650;2023-08-12T06:20:52;11.55;;;4.55;;
72125;SDS011;59999;51.676;22.650;2023-08-12T06:23:18;8.40;;;3.90;;
72125;SDS011;59999;51.676;22.650;2023-08-12T06:25:44;10.43;;;4.22;;
72125;SDS011;59999;51.676;22.650;2023-08-12T06:28:11;9.90;;;4.50;;
72125;SDS011;59999;51.676;22.650;2023-08-12T06:30:37;9.03;;;4.00;;
72125;SDS011;59999;51.676;22.650;2023-08-12T06:33:02;7.60;;;3.30;;
72125;SDS011;59999;51.676;22.650;2023-08-12T06:35:29;7.10;;;3.05;;
72125;SDS011;59999;51.676;22.650;2023-08-12T06:37:55;8.93;;;2.80;;
72125;SDS011;59999;51.676;22.650;2023-08-12T06:40:21;6.57;;;2.63;;
72125;SDS011;59999;51.676;22.650;2023-08-12T06:42:46;5.78;;;2.33;;
72125;SDS011;59999;51.676;22.650;2023-08-12T06:45:13;5.55;;;2.30;;
72125;SDS011;59999;51.676;22.650;2023-08-12T06:47:39;8.00;;;2.60;;
72125;SDS011;59999;51.676;22.650;2023-08-12T06:50:06;9.38;;;2.47;;
72125;SDS011;59999;51.676;22.650;2023-08-12T06:52:32;8.20;;;2.55;;
72125;SDS011;59999;51.676;22.650;2023-08-12T06:54:58;5.40;;;2.30;;
72125;SDS011;59999;51.676;22.650;2023-08-12T06:57:24;8.10;;;2.57;;
72125;SDS011;59999;51.676;22.650;2023-08-12T06:59:50;6.20;;;2.10;;
72125;SDS011;59999;51.676;22.650;2023-08-12T07:02:19;6.95;;;2.60;;
72125;SDS011;59999;51.676;22.650;2023-08-12T07:04:46;7.65;;;2.03;;
72125;SDS011;59999;51.676;22.650;2023-08-12T07:07:12;6.07;;;1.90;;
72125;SDS011;59999;51.676;22.650;2023-08-12T07:09:38;5.43;;;1.52;;
72125;SDS011;59999;51.676;22.650;2023-08-12T07:12:07;5.40;;;1.63;;
72125;SDS011;59999;51.676;22.650;2023-08-12T07:14:33;7.10;;;1.90;;
72125;SDS011;59999;51.676;22.650;2023-08-12T07:16:59;5.60;;;2.07;;
72125;SDS011;59999;51.676;22.650;2023-08-12T07:19:25;6.13;;;1.42;;
72125;SDS011;59999;51.676;22.650;2023-08-12T07:21:51;4.72;;;1.50;;
72125;SDS011;59999;51.676;22.650;2023-08-12T07:24:17;4.30;;;1.73;;
72125;SDS011;59999;51.676;22.650;2023-08-12T07:26:43;5.90;;;1.67;;
72125;SDS011;59999;51.676;22.650;2023-08-12T07:29:10;9.27;;;1.77;;
72125;SDS011;59999;51.676;22.650;2023-08-12T07:31:35;5.93;;;1.40;;
72125;SDS011;59999;51.676;22.650;2023-08-12T07:34:02;5.47;;;1.58;;
72125;SDS011;59999;51.676;22.650;2023-08-12T07:36:28;4.27;;;1.33;;
72125;SDS011;59999;51.676;22.650;2023-08-12T07:38:57;4.82;;;1.50;;
72125;SDS011;59999;51.676;22.650;2023-08-12T07:41:23;5.03;;;1.88;;
72125;SDS011;59999;51.676;22.650;2023-08-12T07:43:53;3.85;;;1.50;;
72125;SDS011;59999;51.676;22.650;2023-08-12T07:46:19;3.30;;;1.30;;
72125;SDS011;59999;51.676;22.650;2023-08-12T07:48:49;6.60;;;1.60;;
72125;SDS011;59999;51.676;22.650;2023-08-12T07:51:15;6.35;;;1.95;;
72125;SDS011;59999;51.676;22.650;2023-08-12T07:53:41;6.35;;;2.10;;
72125;SDS011;59999;51.676;22.650;2023-08-12T07:56:07;4.13;;;1.70;;
72125;SDS011;59999;51.676;22.650;2023-08-12T07:58:34;3.97;;;1.60;;
72125;SDS011;59999;51.676;22.650;2023-08-12T08:01:01;6.70;;;1.90;;
72125;SDS011;59999;51.676;22.650;2023-08-12T08:03:27;4.88;;;1.88;;
72125;SDS011;59999;51.676;22.650;2023-08-12T08:05:53;5.05;;;2.10;;
72125;SDS011;59999;51.676;22.650;2023-08-12T08:08:19;8.80;;;4.03;;
72125;SDS011;59999;51.676;22.650;2023-08-12T08:10:45;10.60;;;5.25;;
72125;SDS011;59999;51.676;22.650;2023-08-12T08:13:11;7.38;;;2.40;;
72125;SDS011;59999;51.676;22.650;2023-08-12T08:15:37;8.45;;;2.38;;
72125;SDS011;59999;51.676;22.650;2023-08-12T08:18:03;6.95;;;3.17;;
72125;SDS011;59999;51.676;22.650;2023-08-12T08:20:31;6.87;;;2.47;;
72125;SDS011;59999;51.676;22.650;2023-08-12T08:22:57;7.78;;;2.40;;
72125;SDS011;59999;51.676;22.650;2023-08-12T08:25:24;7.18;;;2.72;;
72125;SDS011;59999;51.676;22.650;2023-08-12T08:27:50;5.10;;;2.47;;
72125;SDS011;59999;51.676;22.650;2023-08-12T08:30:16;5.67;;;2.50;;
72125;SDS011;59999;51.676;22.650;2023-08-12T08:32:44;5.25;;;2.10;;
72125;SDS011;59999;51.676;22.650;2023-08-12T08:35:11;7.32;;;3.10;;
72125;SDS011;59999;51.676;22.650;2023-08-12T08:37:38;6.10;;;2.50;;
72125;SDS011;59999;51.676;22.650;2023-08-12T08:40:06;7.15;;;2.15;;
72125;SDS011;59999;51.676;22.650;2023-08-12T08:42:33;6.10;;;1.87;;
72125;SDS011;59999;51.676;22.650;2023-08-12T08:45:01;5.57;;;2.17;;
72125;SDS011;59999;51.676;22.650;2023-08-12T08:47:29;8.07;;;2.47;;
72125;SDS011;59999;51.676;22.650;2023-08-12T08:49:56;6.13;;;2.10;;
72125;SDS011;59999;51.676;22.650;2023-08-12T08:52:23;7.72;;;2.20;;
72125;SDS011;59999;51.676;22.650;2023-08-12T08:54:49;5.47;;;2.20;;
72125;SDS011;59999;51.676;22.650;2023-08-12T08:57:16;4.47;;;2.00;;
72125;SDS011;59999;51.676;22.650;2023-08-12T08:59:43;8.52;;;2.40;;
72125;SDS011;59999;51.676;22.650;2023-08-12T09:02:16;4.00;;;1.90;;
72125;SDS011;59999;51.676;22.650;2023-08-12T09:04:46;6.53;;;1.98;;
72125;SDS011;59999;51.676;22.650;2023-08-12T09:07:13;6.93;;;2.20;;
72125;SDS011;59999;51.676;22.650;2023-08-12T09:09:41;6.45;;;2.10;;
72125;SDS011;59999;51.676;22.650;2023-08-12T09:12:11;5.07;;;2.28;;
72125;SDS011;59999;51.676;22.650;2023-08-12T09:14:39;6.05;;;2.10;;
72125;SDS011;59999;51.676;22.650;2023-08-12T09:17:06;4.95;;;2.33;;
72125;SDS011;59999;51.676;22.650;2023-08-12T09:19:32;7.63;;;2.80;;
72125;SDS011;59999;51.676;22.650;2023-08-12T09:22:06;5.35;;;2.28;;
72125;SDS011;59999;51.676;22.650;2023-08-12T09:24:34;5.15;;;2.28;;
72125;SDS011;59999;51.676;22.650;2023-08-12T09:27:01;5.40;;;2.20;;
72125;SDS011;59999;51.676;22.650;2023-08-12T09:29:30;8.00;;;2.20;;
72125;SDS011;59999;51.676;22.650;2023-08-12T09:32:18;7.18;;;2.20;;
72125;SDS011;59999;51.676;22.650;2023-08-12T09:34:48;5.32;;;2.15;;
72125;SDS011;59999;51.676;22.650;2023-08-12T09:37:17;6.90;;;2.30;;
72125;SDS011;59999;51.676;22.650;2023-08-12T09:39:44;6.47;;;2.10;;
72125;SDS011;59999;51.676;22.650;2023-08-12T09:42:14;5.67;;;2.57;;
72125;SDS011;59999;51.676;22.650;2023-08-12T09:44:41;5.30;;;2.35;;
72125;SDS011;59999;51.676;22.650;2023-08-12T09:47:07;6.07;;;2.40;;
72125;SDS011;59999;51.676;22.650;2023-08-12T09:49:36;5.22;;;2.28;;
72125;SDS011;59999;51.676;22.650;2023-08-12T09:52:03;5.18;;;2.30;;
72125;SDS011;59999;51.676;22.650;2023-08-12T09:54:36;7.30;;;2.57;;
72125;SDS011;59999;51.676;22.650;2023-08-12T09:57:05;5.68;;;2.20;;
72125;SDS011;59999;51.676;22.650;2023-08-12T09:59:37;5.55;;;2.03;;
72125;SDS011;59999;51.676;22.650;2023-08-12T10:02:03;5.35;;;2.45;;
72125;SDS011;59999;51.676;22.650;2023-08-12T10:04:41;6.93;;;2.30;;
72125;SDS011;59999;51.676;22.650;2023-08-12T10:07:10;11.50;;;3.37;;
72125;SDS011;59999;51.676;22.650;2023-08-12T10:09:38;6.50;;;2.50;;
72125;SDS011;59999;51.676;22.650;2023-08-12T10:12:05;6.45;;;2.90;;
72125;SDS011;59999;51.676;22.650;2023-08-12T10:14:32;4.97;;;2.20;;
72125;SDS011;59999;51.676;22.650;2023-08-12T10:16:59;5.70;;;2.30;;
72125;SDS011;59999;51.676;22.650;2023-08-12T10:19:25;7.23;;;2.30;;
72125;SDS011;59999;51.676;22.650;2023-08-12T10:21:55;16.85;;;3.65;;
72125;SDS011;59999;51.676;22.650;2023-08-12T10:24:24;9.73;;;2.10;;
72125;SDS011;59999;51.676;22.650;2023-08-12T10:26:52;4.45;;;1.83;;
72125;SDS011;59999;51.676;22.650;2023-08-12T10:29:19;8.30;;;2.35;;
72125;SDS011;59999;51.676;22.650;2023-08-12T10:31:48;4.80;;;1.53;;
72125;SDS011;59999;51.676;22.650;2023-08-12T10:34:18;5.28;;;1.90;;
72125;SDS011;59999;51.676;22.650;2023-08-12T10:36:45;6.10;;;2.00;;
72125;SDS011;59999;51.676;22.650;2023-08-12T10:39:11;4.95;;;2.10;;
72125;SDS011;59999;51.676;22.650;2023-08-12T10:41:39;5.43;;;1.85;;
72125;SDS011;59999;51.676;22.650;2023-08-12T10:44:16;6.87;;;1.97;;
72125;SDS011;59999;51.676;22.650;2023-08-12T10:46:42;4.82;;;1.95;;
72125;SDS011;59999;51.676;22.650;2023-08-12T10:49:15;7.00;;;2.00;;
72125;SDS011;59999;51.676;22.650;2023-08-12T10:51:45;4.30;;;1.45;;
72125;SDS011;59999;51.676;22.650;2023-08-12T10:54:16;6.28;;;1.92;;
72125;SDS011;59999;51.676;22.650;2023-08-12T11:02:26;4.70;;;1.85;;
72125;SDS011;59999;51.676;22.650;2023-08-12T11:04:53;4.43;;;1.70;;
72125;SDS011;59999;51.676;22.650;2023-08-12T11:07:21;4.40;;;1.95;;
72125;SDS011;59999;51.676;22.650;2023-08-12T11:09:54;6.90;;;2.10;;
72125;SDS011;59999;51.676;22.650;2023-08-12T11:12:31;6.43;;;1.95;;
72125;SDS011;59999;51.676;22.650;2023-08-12T11:15:00;5.68;;;2.17;;
72125;SDS011;59999;51.676;22.650;2023-08-12T11:17:28;5.82;;;1.80;;
72125;SDS011;59999;51.676;22.650;2023-08-12T11:19:59;5.57;;;1.90;;
72125;SDS011;59999;51.676;22.650;2023-08-12T11:22:26;4.33;;;1.80;;
72125;SDS011;59999;51.676;22.650;2023-08-12T11:24:52;6.50;;;1.90;;
72125;SDS011;59999;51.676;22.650;2023-08-12T11:27:18;9.27;;;1.85;;
72125;SDS011;59999;51.676;22.650;2023-08-12T11:29:44;7.43;;;1.57;;
72125;SDS011;59999;51.676;22.650;2023-08-12T11:32:10;4.43;;;1.80;;
72125;SDS011;59999;51.676;22.650;2023-08-12T11:34:36;5.53;;;1.95;;
72125;SDS011;59999;51.676;22.650;2023-08-12T11:37:03;5.50;;;1.95;;
72125;SDS011;59999;51.676;22.650;2023-08-12T11:39:29;7.72;;;3.40;;
72125;SDS011;59999;51.676;22.650;2023-08-12T11:41:55;7.50;;;2.67;;
72125;SDS011;59999;51.676;22.650;2023-08-12T11:44:22;6.28;;;2.10;;
72125;SDS011;59999;51.676;22.650;2023-08-12T11:46:49;7.22;;;2.55;;
72125;SDS011;59999;51.676;22.650;2023-08-12T11:49:15;6.68;;;2.47;;
72125;SDS011;59999;51.676;22.650;2023-08-12T11:51:44;5.85;;;2.53;;
72125;SDS011;59999;51.676;22.650;2023-08-12T11:54:13;5.63;;;2.03;;
72125;SDS011;59999;51.676;22.650;2023-08-12T11:56:40;4.63;;;1.80;;
72125;SDS011;59999;51.676;22.650;2023-08-12T11:59:07;8.32;;;2.35;;
72125;SDS011;59999;51.676;22.650;2023-08-12T12:01:33;4.53;;;1.65;;
72125;SDS011;59999;51.676;22.650;2023-08-12T12:03:59;5.72;;;1.80;;
72125;SDS011;59999;51.676;22.650;2023-08-12T12:06:32;5.57;;;1.90;;
72125;SDS011;59999;51.676;22.650;2023-08-12T12:09:04;5.28;;;1.88;;
72125;SDS011;59999;51.676;22.650;2023-08-12T12:11:33;5.70;;;1.90;;
72125;SDS011;59999;51.676;22.650;2023-08-12T12:14:06;9.00;;;2.43;;
72125;SDS011;59999;51.676;22.650;2023-08-12T12:16:40;4.63;;;1.90;;
72125;SDS011;59999;51.676;22.650;2023-08-12T12:19:21;6.93;;;2.63;;
72125;SDS011;59999;51.676;22.650;2023-08-12T12:21:49;5.28;;;2.10;;
72125;SDS011;59999;51.676;22.650;2023-08-12T12:24:16;8.40;;;2.00;;
72125;SDS011;59999;51.676;22.650;2023-08-12T12:26:43;5.97;;;2.17;;
72125;SDS011;59999;51.676;22.650;2023-08-12T12:29:10;6.23;;;1.97;;
72125;SDS011;59999;51.676;22.650;2023-08-12T12:31:40;6.50;;;1.70;;
72125;SDS011;59999;51.676;22.650;2023-08-12T12:34:07;4.50;;;2.10;;
72125;SDS011;59999;51.676;22.650;2023-08-12T12:36:37;6.43;;;1.85;;
72125;SDS011;59999;51.676;22.650;2023-08-12T12:39:11;4.43;;;1.92;;
72125;SDS011;59999;51.676;22.650;2023-08-12T12:41:39;5.27;;;2.03;;
72125;SDS011;59999;51.676;22.650;2023-08-12T12:44:05;4.15;;;2.30;;
72125;SDS011;59999;51.676;22.650;2023-08-12T12:46:31;5.13;;;2.30;;
72125;SDS011;59999;51.676;22.650;2023-08-12T12:48:58;6.63;;;2.30;;
72125;SDS011;59999;51.676;22.650;2023-08-12T12:51:26;8.35;;;2.28;;
72125;SDS011;59999;51.676;22.650;2023-08-12T12:53:52;6.63;;;2.50;;
72125;SDS011;59999;51.676;22.650;2023-08-12T12:56:19;5.88;;;2.15;;
72125;SDS011;59999;51.676;22.650;2023-08-12T12:58:45;5.80;;;2.50;;
72125;SDS011;59999;51.676;22.650;2023-08-12T13:01:11;5.40;;;2.55;;
72125;SDS011;59999;51.676;22.650;2023-08-12T13:03:38;6.10;;;2.30;;
72125;SDS011;59999;51.676;22.650;2023-08-12T13:06:07;6.22;;;2.22;;
72125;SDS011;59999;51.676;22.650;2023-08-12T13:08:33;6.55;;;2.47;;
72125;SDS011;59999;51.676;22.650;2023-08-12T13:11:01;6.10;;;2.53;;
72125;SDS011;59999;51.676;22.650;2023-08-12T13:13:26;5.13;;;2.70;;
72125;SDS011;59999;51.676;22.650;2023-08-12T13:15:53;6.90;;;2.60;;
72125;SDS011;59999;51.676;22.650;2023-08-12T13:18:20;6.57;;;2.67;;
72125;SDS011;59999;51.676;22.650;2023-08-12T13:20:46;6.07;;;2.70;;
72125;SDS011;59999;51.676;22.650;2023-08-12T13:23:13;6.07;;;2.60;;
72125;SDS011;59999;51.676;22.650;2023-08-12T13:25:43;4.65;;;2.33;;
72125;SDS011;59999;51.676;22.650;2023-08-12T13:28:09;22.27;;;18.38;;
72125;SDS011;59999;51.676;22.650;2023-08-12T13:30:35;6.60;;;3.47;;
72125;SDS011;59999;51.676;22.650;2023-08-12T13:33:02;19.30;;;15.07;;
72125;SDS011;59999;51.676;22.650;2023-08-12T13:35:30;9.53;;;3.00;;
72125;SDS011;59999;51.676;22.650;2023-08-12T13:37:58;5.28;;;2.83;;
72125;SDS011;59999;51.676;22.650;2023-08-12T13:40:24;5.15;;;3.00;;
72125;SDS011;59999;51.676;22.650;2023-08-12T13:42:51;8.13;;;4.40;;
72125;SDS011;59999;51.676;22.650;2023-08-12T13:45:18;6.20;;;2.88;;
72125;SDS011;59999;51.676;22.650;2023-08-12T13:47:44;6.50;;;2.70;;
72125;SDS011;59999;51.676;22.650;2023-08-12T13:50:14;18.65;;;5.28;;
72125;SDS011;59999;51.676;22.650;2023-08-12T13:52:40;16.60;;;4.60;;
72125;SDS011;59999;51.676;22.650;2023-08-12T13:55:09;6.45;;;3.40;;
72125;SDS011;59999;51.676;22.650;2023-08-12T13:57:35;5.40;;;2.87;;
72125;SDS011;59999;51.676;22.650;2023-08-12T14:00:02;5.60;;;2.85;;
72125;SDS011;59999;51.676;22.650;2023-08-12T14:02:30;4.60;;;2.47;;
72125;SDS011;59999;51.676;22.650;2023-08-12T14:04:59;4.75;;;3.25;;
72125;SDS011;59999;51.676;22.650;2023-08-12T14:07:36;7.20;;;3.37;;
72125;SDS011;59999;51.676;22.650;2023-08-12T14:10:05;5.40;;;2.70;;
72125;SDS011;59999;51.676;22.650;2023-08-12T14:12:31;6.20;;;2.90;;
72125;SDS011;59999;51.676;22.650;2023-08-12T14:14:58;7.35;;;2.90;;
72125;SDS011;59999;51.676;22.650;2023-08-12T14:17:24;5.68;;;3.00;;
72125;SDS011;59999;51.676;22.650;2023-08-12T14:19:52;6.03;;;2.90;;
72125;SDS011;59999;51.676;22.650;2023-08-12T14:22:21;7.65;;;3.00;;
72125;SDS011;59999;51.676;22.650;2023-08-12T14:24:50;6.57;;;2.83;;
72125;SDS011;59999;51.676;22.650;2023-08-12T14:27:18;5.50;;;2.80;;
72125;SDS011;59999;51.676;22.650;2023-08-12T14:29:47;5.60;;;3.13;;
72125;SDS011;59999;51.676;22.650;2023-08-12T14:32:13;4.97;;;2.60;;
72125;SDS011;59999;51.676;22.650;2023-08-12T14:34:41;6.82;;;2.83;;
72125;SDS011;59999;51.676;22.650;2023-08-12T14:37:10;6.25;;;2.85;;